This is the latest recevied weather packets stored in our database for station/object KG7DQI-13. If no packets are shown the sender has not sent any weather packets the latest 10 day(s).
| Time | Temp. | Humidity | Pressure | Rain* | Wind** | Luminosity | Snow |
|---|---|---|---|---|---|---|---|
| 1777626183 | 3.33° C | 73% | 916.6 hPa | 0 mm | - | 0 W/m² | - |
| 1777625275 | 3.33° C | 74% | 916.6 hPa | 0 mm | - | 0 W/m² | - |
| 1777624378 | 3.89° C | 73% | 916.8 hPa | 0 mm | - | 0 W/m² | - |
| 1777623460 | 3.89° C | 70% | 916.7 hPa | 0 mm | - | 0 W/m² | - |
| 1777622577 | 4.44° C | 69% | 916.8 hPa | 0 mm | - | 0 W/m² | - |
| 1777621666 | 5° C | 68% | 916.7 hPa | 0 mm | - | 0 W/m² | - |
| 1777620754 | 5° C | 67% | 916.6 hPa | 0 mm | - | 0 W/m² | - |
| 1777619851 | 5.56° C | 66% | 916.7 hPa | 0 mm | - | 0 W/m² | - |
| 1777618952 | 6.11° C | 65% | 916.6 hPa | 0 mm | - | 0 W/m² | - |
| 1777618064 | 7.22° C | 62% | 916.4 hPa | 0 mm | - | 0 W/m² | - |
| 1777617122 | 8.33° C | 60% | 916.4 hPa | 0 mm | - | 0 W/m² | - |
| 1777616258 | 8.89° C | 58% | 916.4 hPa | 0 mm | - | 0 W/m² | - |
| 1777615325 | 10° C | 56% | 916.4 hPa | 0 mm | - | 0 W/m² | - |
| 1777614402 | 11.11° C | 53% | 916.3 hPa | 0 mm | - | 0 W/m² | - |
| 1777613457 | 12.22° C | 51% | 916.2 hPa | 0 mm | - | 0 W/m² | - |
| 1777612548 | 12.22° C | 51% | 916.2 hPa | 0 mm | - | 0 W/m² | - |
| 1777611665 | 13.33° C | 49% | 916.2 hPa | 0 mm | - | 0 W/m² | - |
| 1777610775 | 13.33° C | 48% | 916.1 hPa | 0 mm | - | 0 W/m² | - |
| 1777609830 | 13.33° C | 48% | 915.9 hPa | 0 mm | - | 0 W/m² | - |
| 1777608900 | 13.33° C | 49% | 915.7 hPa | 0 mm | - | 0 W/m² | - |
| 1777608000 | 13.33° C | 48% | 915.6 hPa | 0 mm | - | 0 W/m² | - |
| 1777607066 | 13.89° C | 46% | 915.4 hPa | 0 mm | - | 0 W/m² | - |
| 1777606165 | 15° C | 43% | 915.3 hPa | 0 mm | - | 0 W/m² | - |
| 1777605260 | 16.67° C | 39% | 915.1 hPa | 0 mm | - | 0 W/m² | - |
| 1777604331 | 18.33° C | 36% | 914.9 hPa | 0 mm | - | 0 W/m² | - |
* Rain latest hour (hover to see other rain measurements)
** Current wind speed in m/s (hover to see current wind gust speed)